PRIVATE WETTERSTATION BILLIGHEIM-ALLFELD                       ZURCK
Wetterdaten: Sonntag, 24.08.2014
Datum Zeit Temp. A. Temp. A. min Temp. A. max Feuchte A. Luftdruck Regen Wind Richtung Richtung Sonnenschein ET Solar Taupunkt Windchill Windben Empfang
24.08.2014 00:00 10,6 C 10,6 C 10,8 C 88 % 1016,1 hPa 0,0 l/m 1,6 km/h (1 Bft) S 180 0 min 0,000 mm 0 W/m 8,7 C 10,6 C 6,4 km/h (2 Bft) 98 %
24.08.2014 00:10 10,5 C 10,5 C 10,6 C 88 % 1016,1 hPa 0,0 l/m 1,6 km/h (1 Bft) S 180 0 min 0,000 mm 0 W/m 8,6 C 10,5 C 6,4 km/h (2 Bft) 97 %
24.08.2014 00:20 10,5 C 10,4 C 10,5 C 88 % 1016,0 hPa 0,0 l/m 0,0 km/h (0 Bft) W-SW 247 0 min 0,000 mm 0 W/m 8,6 C 10,5 C 6,4 km/h (2 Bft) 97 %
24.08.2014 00:30 10,4 C 10,4 C 10,5 C 88 % 1016,0 hPa 0,0 l/m 0,0 km/h (0 Bft) W-SW 247 0 min 0,000 mm 0 W/m 8,5 C 10,4 C 3,2 km/h (1 Bft) 98 %
24.08.2014 00:40 10,4 C 10,4 C 10,4 C 88 % 1016,3 hPa 0,0 l/m 0,0 km/h (0 Bft) W-SW 247 0 min 0,000 mm 0 W/m 8,5 C 10,4 C 1,6 km/h (1 Bft) 98 %
24.08.2014 00:50 10,4 C 10,4 C 10,4 C 88 % 1016,3 hPa 0,0 l/m 0,0 km/h (0 Bft) W-SW 247 0 min 0,000 mm 0 W/m 8,5 C 10,4 C 3,2 km/h (1 Bft) 98 %
24.08.2014 01:00 10,4 C 10,4 C 10,4 C 88 % 1016,4 hPa 0,0 l/m 0,0 km/h (0 Bft) N 0 0 min 0,000 mm 0 W/m 8,5 C 10,4 C 0,0 km/h (0 Bft) 97 %
24.08.2014 01:10 10,3 C 10,3 C 10,4 C 88 % 1016,3 hPa 0,0 l/m 0,0 km/h (0 Bft) N 0 0 min 0,000 mm 0 W/m 8,4 C 10,3 C 0,0 km/h (0 Bft) 97 %
24.08.2014 01:20 10,4 C 10,3 C 10,4 C 88 % 1016,3 hPa 0,0 l/m 0,0 km/h (0 Bft) W-SW 247 0 min 0,000 mm 0 W/m 8,5 C 10,4 C 1,6 km/h (1 Bft) 98 %
24.08.2014 01:30 10,4 C 10,4 C 10,4 C 88 % 1016,2 hPa 0,0 l/m 0,0 km/h (0 Bft) N 0 0 min 0,000 mm 0 W/m 8,5 C 10,4 C 0,0 km/h (0 Bft) 97 %
24.08.2014 01:40 10,5 C 10,4 C 10,5 C 88 % 1016,3 hPa 0,0 l/m 0,0 km/h (0 Bft) W-SW 247 0 min 0,000 mm 0 W/m 8,6 C 10,5 C 1,6 km/h (1 Bft) 98 %
24.08.2014 01:50 10,5 C 10,5 C 10,6 C 88 % 1016,3 hPa 0,0 l/m 1,6 km/h (1 Bft) W-NW 292 0 min 0,000 mm 0 W/m 8,6 C 10,5 C 6,4 km/h (2 Bft) 98 %
24.08.2014 02:00 10,6 C 10,5 C 10,6 C 88 % 1016,3 hPa 0,0 l/m 1,6 km/h (1 Bft) NW 315 0 min 0,000 mm 0 W/m 8,7 C 10,6 C 6,4 km/h (2 Bft) 98 %
24.08.2014 02:10 10,6 C 10,6 C 10,6 C 88 % 1016,2 hPa 0,0 l/m 0,0 km/h (0 Bft) W-SW 247 0 min 0,000 mm 0 W/m 8,7 C 10,6 C 4,8 km/h (1 Bft) 97 %
24.08.2014 02:20 10,6 C 10,6 C 10,6 C 88 % 1016,2 hPa 0,0 l/m 0,0 km/h (0 Bft) W 270 0 min 0,000 mm 0 W/m 8,7 C 10,6 C 6,4 km/h (2 Bft) 98 %
24.08.2014 02:30 10,5 C 10,5 C 10,6 C 88 % 1016,2 hPa 0,0 l/m 0,0 km/h (0 Bft) N 0 0 min 0,000 mm 0 W/m 8,6 C 10,5 C 0,0 km/h (0 Bft) 88 %
24.08.2014 02:40 10,5 C 10,5 C 10,5 C 88 % 1016,3 hPa 0,0 l/m 0,0 km/h (0 Bft) W 270 0 min 0,000 mm 0 W/m 8,6 C 10,5 C 3,2 km/h (1 Bft) 97 %
24.08.2014 02:50 10,4 C 10,4 C 10,5 C 88 % 1016,4 hPa 0,0 l/m 0,0 km/h (0 Bft) W 270 0 min 0,000 mm 0 W/m 8,5 C 10,4 C 3,2 km/h (1 Bft) 98 %
24.08.2014 03:00 10,4 C 10,4 C 10,4 C 88 % 1016,6 hPa 0,0 l/m 1,6 km/h (1 Bft) W 270 0 min 0,000 mm 0 W/m 8,5 C 10,4 C 6,4 km/h (2 Bft) 98 %
24.08.2014 03:10 10,4 C 10,4 C 10,4 C 88 % 1016,6 hPa 0,0 l/m 0,0 km/h (0 Bft) W 270 0 min 0,000 mm 0 W/m 8,5 C 10,4 C 3,2 km/h (1 Bft) 97 %
24.08.2014 03:20 10,4 C 10,4 C 10,4 C 88 % 1016,5 hPa 0,0 l/m 0,0 km/h (0 Bft) W 270 0 min 0,000 mm 0 W/m 8,5 C 10,4 C 6,4 km/h (2 Bft) 98 %
24.08.2014 03:30 10,4 C 10,4 C 10,5 C 88 % 1016,6 hPa 0,0 l/m 3,2 km/h (1 Bft) W-NW 292 0 min 0,000 mm 0 W/m 8,5 C 10,4 C 8,0 km/h (2 Bft) 97 %
24.08.2014 03:40 10,4 C 10,4 C 10,4 C 88 % 1016,7 hPa 0,0 l/m 1,6 km/h (1 Bft) W 270 0 min 0,000 mm 0 W/m 8,5 C 10,4 C 8,0 km/h (2 Bft) 98 %
24.08.2014 03:50 10,4 C 10,4 C 10,4 C 88 % 1016,9 hPa 0,0 l/m 1,6 km/h (1 Bft) W-SW 247 0 min 0,000 mm 0 W/m 8,5 C 10,4 C 8,0 km/h (2 Bft) 97 %
24.08.2014 04:00 10,4 C 10,4 C 10,4 C 88 % 1016,9 hPa 0,0 l/m 4,8 km/h (1 Bft) W-SW 247 0 min 0,000 mm 0 W/m 8,5 C 10,4 C 16,1 km/h (3 Bft) 98 %
24.08.2014 04:10 10,4 C 10,4 C 10,4 C 88 % 1016,9 hPa 0,0 l/m 1,6 km/h (1 Bft) W-SW 247 0 min 0,000 mm 0 W/m 8,5 C 10,4 C 9,7 km/h (2 Bft) 97 %
24.08.2014 04:20 10,3 C 10,3 C 10,4 C 88 % 1016,8 hPa 0,0 l/m 0,0 km/h (0 Bft) W-SW 247 0 min 0,000 mm 0 W/m 8,4 C 10,3 C 4,8 km/h (1 Bft) 98 %
24.08.2014 04:30 10,2 C 10,2 C 10,3 C 88 % 1016,9 hPa 0,0 l/m 0,0 km/h (0 Bft) W-SW 247 0 min 0,000 mm 0 W/m 8,3 C 10,2 C 1,6 km/h (1 Bft) 98 %
24.08.2014 04:40 10,2 C 10,1 C 10,2 C 88 % 1016,9 hPa 0,0 l/m 0,0 km/h (0 Bft) W-SW 247 0 min 0,000 mm 0 W/m 8,3 C 10,2 C 4,8 km/h (1 Bft) 96 %
24.08.2014 04:50 10,1 C 10,1 C 10,2 C 88 % 1016,9 hPa 0,0 l/m 1,6 km/h (1 Bft) W-SW 247 0 min 0,000 mm 0 W/m 8,2 C 10,1 C 9,7 km/h (2 Bft) 98 %
24.08.2014 05:00 10,0 C 10,0 C 10,1 C 88 % 1016,9 hPa 0,0 l/m 1,6 km/h (1 Bft) W-SW 247 0 min 0,000 mm 0 W/m 8,1 C 10,0 C 6,4 km/h (2 Bft) 97 %
24.08.2014 05:10 9,9 C 9,9 C 10,0 C 88 % 1016,9 hPa 0,0 l/m 0,0 km/h (0 Bft) W 270 0 min 0,000 mm 0 W/m 8,0 C 9,9 C 6,4 km/h (2 Bft) 98 %
24.08.2014 05:20 9,9 C 9,9 C 9,9 C 88 % 1016,9 hPa 0,0 l/m 0,0 km/h (0 Bft) N 0 0 min 0,000 mm 0 W/m 8,0 C 9,9 C 0,0 km/h (0 Bft) 97 %
24.08.2014 05:30 9,9 C 9,9 C 9,9 C 88 % 1016,9 hPa 0,0 l/m 0,0 km/h (0 Bft) W 270 0 min 0,000 mm 0 W/m 8,0 C 9,9 C 1,6 km/h (1 Bft) 98 %
24.08.2014 05:40 9,8 C 9,8 C 9,9 C 88 % 1017,0 hPa 0,0 l/m 0,0 km/h (0 Bft) W 270 0 min 0,000 mm 0 W/m 7,9 C 9,8 C 4,8 km/h (1 Bft) 88 %
24.08.2014 05:50 9,7 C 9,7 C 9,8 C 88 % 1017,2 hPa 0,0 l/m 3,2 km/h (1 Bft) NW 315 0 min 0,000 mm 0 W/m 7,8 C 9,7 C 8,0 km/h (2 Bft) 97 %
24.08.2014 06:00 9,8 C 9,7 C 9,8 C 88 % 1017,4 hPa 0,0 l/m 1,6 km/h (1 Bft) NW 315 0 min 0,000 mm 0 W/m 7,9 C 9,8 C 8,0 km/h (2 Bft) 98 %
24.08.2014 06:10 9,7 C 9,7 C 9,8 C 88 % 1017,5 hPa 0,0 l/m 1,6 km/h (1 Bft) W-NW 292 0 min 0,000 mm 0 W/m 7,8 C 9,7 C 6,4 km/h (2 Bft) 97 %
24.08.2014 06:20 9,6 C 9,6 C 9,7 C 88 % 1017,5 hPa 0,0 l/m 1,6 km/h (1 Bft) W 270 0 min 0,000 mm 0 W/m 7,7 C 9,6 C 11,3 km/h (2 Bft) 98 %
24.08.2014 06:30 9,4 C 9,4 C 9,6 C 88 % 1017,5 hPa 0,0 l/m 0,0 km/h (0 Bft) W 270 0 min 0,000 mm 0 W/m 7,5 C 9,4 C 1,6 km/h (1 Bft) 97 %
24.08.2014 06:40 9,1 C 9,1 C 9,4 C 88 % 1017,5 hPa 0,0 l/m 0,0 km/h (0 Bft) W-SW 247 0 min 0,000 mm 11 W/m 7,2 C 9,1 C 4,8 km/h (1 Bft) 98 %
24.08.2014 06:50 9,1 C 9,1 C 9,1 C 88 % 1017,5 hPa 0,0 l/m 1,6 km/h (1 Bft) O-SO 112 0 min 0,000 mm 18 W/m 7,2 C 9,1 C 4,8 km/h (1 Bft) 97 %
24.08.2014 07:00 9,2 C 9,1 C 9,2 C 88 % 1017,7 hPa 0,0 l/m 1,6 km/h (1 Bft) SO 135 0 min 0,000 mm 19 W/m 7,3 C 9,2 C 6,4 km/h (2 Bft) 98 %
24.08.2014 07:10 9,2 C 9,2 C 9,2 C 88 % 1017,7 hPa 0,0 l/m 1,6 km/h (1 Bft) S-SO 157 0 min 0,000 mm 18 W/m 7,3 C 9,2 C 6,4 km/h (2 Bft) 98 %
24.08.2014 07:20 9,2 C 9,1 C 9,2 C 88 % 1017,8 hPa 0,0 l/m 1,6 km/h (1 Bft) S 180 0 min 0,000 mm 19 W/m 7,3 C 9,2 C 6,4 km/h (2 Bft) 97 %
24.08.2014 07:30 9,2 C 9,1 C 9,2 C 88 % 1017,9 hPa 0,0 l/m 1,6 km/h (1 Bft) S-SO 157 0 min 0,000 mm 28 W/m 7,3 C 9,2 C 8,0 km/h (2 Bft) 98 %
24.08.2014 07:40 9,3 C 9,2 C 9,3 C 88 % 1018,3 hPa 0,0 l/m 3,2 km/h (1 Bft) S-SW 202 0 min 0,000 mm 39 W/m 7,4 C 9,3 C 9,7 km/h (2 Bft) 97 %
24.08.2014 07:50 9,4 C 9,3 C 9,4 C 88 % 1018,5 hPa 0,0 l/m 0,0 km/h (0 Bft) W-SW 247 0 min 0,000 mm 47 W/m 7,5 C 9,4 C 9,7 km/h (2 Bft) 98 %
24.08.2014 08:00 9,5 C 9,4 C 9,5 C 88 % 1018,7 hPa 0,0 l/m 1,6 km/h (1 Bft) W 270 0 min 0,025 mm 60 W/m 7,6 C 9,5 C 6,4 km/h (2 Bft) 97 %
24.08.2014 08:10 9,6 C 9,5 C 9,6 C 88 % 1018,8 hPa 0,0 l/m 3,2 km/h (1 Bft) W 270 0 min 0,000 mm 44 W/m 7,7 C 9,6 C 14,5 km/h (3 Bft) 97 %
24.08.2014 08:20 9,6 C 9,6 C 9,6 C 88 % 1018,8 hPa 0,0 l/m 3,2 km/h (1 Bft) W 270 0 min 0,000 mm 74 W/m 7,7 C 9,6 C 12,9 km/h (3 Bft) 98 %
24.08.2014 08:30 9,6 C 9,6 C 9,6 C 88 % 1018,7 hPa 0,0 l/m 3,2 km/h (1 Bft) W-SW 247 0 min 0,000 mm 105 W/m 7,7 C 9,6 C 11,3 km/h (2 Bft) 88 %
24.08.2014 08:40 9,7 C 9,6 C 9,7 C 88 % 1018,8 hPa 0,0 l/m 3,2 km/h (1 Bft) W-SW 247 0 min 0,000 mm 132 W/m 7,8 C 9,7 C 9,7 km/h (2 Bft) 98 %
24.08.2014 08:50 9,9 C 9,7 C 9,9 C 88 % 1018,8 hPa 0,0 l/m 0,0 km/h (0 Bft) W-SW 247 0 min 0,000 mm 142 W/m 8,0 C 9,9 C 6,4 km/h (2 Bft) 97 %
24.08.2014 09:00 10,2 C 9,9 C 10,2 C 88 % 1018,8 hPa 0,0 l/m 4,8 km/h (1 Bft) W-SW 247 10 min 0,051 mm 313 W/m 8,3 C 10,2 C 11,3 km/h (2 Bft) 99 %
24.08.2014 09:10 10,6 C 10,2 C 10,6 C 88 % 1019,0 hPa 0,0 l/m 6,4 km/h (2 Bft) S-SW 202 10 min 0,000 mm 243 W/m 8,7 C 10,6 C 17,7 km/h (3 Bft) 99 %
24.08.2014 09:20 10,6 C 10,6 C 10,6 C 88 % 1019,2 hPa 0,0 l/m 4,8 km/h (1 Bft) SW 225 10 min 0,000 mm 547 W/m 8,7 C 10,6 C 12,9 km/h (3 Bft) 99 %
24.08.2014 09:30 11,2 C 10,7 C 11,2 C 88 % 1019,4 hPa 0,0 l/m 4,8 km/h (1 Bft) S-SW 202 10 min 0,000 mm 448 W/m 9,3 C 11,2 C 17,7 km/h (3 Bft) 100 %
24.08.2014 09:40 11,4 C 11,2 C 11,4 C 88 % 1019,4 hPa 0,0 l/m 1,6 km/h (1 Bft) W 270 10 min 0,000 mm 218 W/m 9,5 C 11,4 C 8,0 km/h (2 Bft) 99 %
24.08.2014 09:50 11,6 C 11,4 C 11,6 C 88 % 1019,5 hPa 0,0 l/m 1,6 km/h (1 Bft) W-SW 247 10 min 0,000 mm 547 W/m 9,7 C 11,6 C 11,3 km/h (2 Bft) 100 %
24.08.2014 10:00 12,0 C 11,6 C 12,0 C 88 % 1019,6 hPa 0,0 l/m 3,2 km/h (1 Bft) W-NW 292 10 min 0,127 mm 538 W/m 10,1 C 12,0 C 11,3 km/h (2 Bft) 99 %
24.08.2014 10:10 12,2 C 12,1 C 12,3 C 86 % 1019,8 hPa 0,0 l/m 3,2 km/h (1 Bft) W 270 10 min 0,000 mm 578 W/m 9,9 C 12,2 C 9,7 km/h (2 Bft) 99 %
24.08.2014 10:20 12,9 C 12,2 C 12,9 C 86 % 1019,9 hPa 0,0 l/m 1,6 km/h (1 Bft) W-SW 247 10 min 0,000 mm 680 W/m 10,6 C 12,9 C 8,0 km/h (2 Bft) 100 %
24.08.2014 10:30 13,7 C 13,0 C 13,7 C 85 % 1019,9 hPa 0,0 l/m 4,8 km/h (1 Bft) SW 225 10 min 0,000 mm 663 W/m 11,2 C 13,7 C 14,5 km/h (3 Bft) 100 %
24.08.2014 10:40 13,9 C 13,7 C 14,1 C 76 % 1020,0 hPa 0,0 l/m 4,8 km/h (1 Bft) W-NW 292 10 min 0,000 mm 661 W/m 9,7 C 13,9 C 16,1 km/h (3 Bft) 100 %
24.08.2014 10:50 13,8 C 13,8 C 13,9 C 77 % 1020,0 hPa 0,0 l/m 3,2 km/h (1 Bft) W 270 10 min 0,000 mm 659 W/m 9,8 C 13,8 C 11,3 km/h (2 Bft) 100 %
24.08.2014 11:00 14,5 C 13,8 C 14,5 C 76 % 1020,0 hPa 0,0 l/m 6,4 km/h (2 Bft) W-SW 247 10 min 0,254 mm 701 W/m 10,3 C 14,5 C 19,3 km/h (3 Bft) 100 %
24.08.2014 11:10 15,1 C 14,6 C 15,1 C 73 % 1020,0 hPa 0,0 l/m 4,8 km/h (1 Bft) W-SW 247 10 min 0,000 mm 740 W/m 10,3 C 15,1 C 19,3 km/h (3 Bft) 99 %
24.08.2014 11:20 15,3 C 15,1 C 15,4 C 70 % 1019,9 hPa 0,0 l/m 8,0 km/h (2 Bft) SW 225 10 min 0,000 mm 747 W/m 9,9 C 14,4 C 25,7 km/h (4 Bft) 100 %
24.08.2014 11:30 15,4 C 15,3 C 15,4 C 66 % 1019,9 hPa 0,0 l/m 6,4 km/h (2 Bft) W-NW 292 10 min 0,000 mm 742 W/m 9,1 C 15,4 C 19,3 km/h (3 Bft) 100 %
24.08.2014 11:40 15,1 C 15,1 C 15,4 C 66 % 1020,0 hPa 0,0 l/m 8,0 km/h (2 Bft) W-NW 292 10 min 0,000 mm 301 W/m 8,8 C 14,2 C 19,3 km/h (3 Bft) 100 %
24.08.2014 11:50 14,8 C 14,8 C 15,1 C 69 % 1020,0 hPa 0,0 l/m 9,7 km/h (2 Bft) W 270 10 min 0,000 mm 831 W/m 9,2 C 13,0 C 20,9 km/h (4 Bft) 100 %
24.08.2014 12:00 14,7 C 14,7 C 14,8 C 66 % 1020,0 hPa 0,0 l/m 8,0 km/h (2 Bft) W-NW 292 10 min 0,254 mm 243 W/m 8,4 C 13,8 C 22,5 km/h (4 Bft) 100 %
24.08.2014 12:10 14,8 C 14,7 C 14,8 C 68 % 1019,8 hPa 0,0 l/m 8,0 km/h (2 Bft) W-NW 292 10 min 0,000 mm 877 W/m 9,0 C 13,9 C 19,3 km/h (3 Bft) 100 %
24.08.2014 12:20 15,2 C 14,8 C 15,2 C 67 % 1019,9 hPa 0,0 l/m 8,0 km/h (2 Bft) W-NW 292 10 min 0,000 mm 858 W/m 9,1 C 14,3 C 19,3 km/h (3 Bft) 100 %
24.08.2014 12:30 15,1 C 15,1 C 15,3 C 65 % 1019,8 hPa 0,0 l/m 6,4 km/h (2 Bft) W-SW 247 10 min 0,000 mm 891 W/m 8,6 C 15,1 C 19,3 km/h (3 Bft) 100 %
24.08.2014 12:40 15,7 C 15,1 C 15,7 C 70 % 1019,8 hPa 0,0 l/m 6,4 km/h (2 Bft) W 270 10 min 0,000 mm 933 W/m 10,2 C 15,7 C 19,3 km/h (3 Bft) 100 %
24.08.2014 12:50 15,9 C 15,7 C 16,0 C 63 % 1019,7 hPa 0,0 l/m 11,3 km/h (2 Bft) W 270 10 min 0,000 mm 812 W/m 8,9 C 13,6 C 25,7 km/h (4 Bft) 99 %
24.08.2014 13:00 15,8 C 15,8 C 15,9 C 61 % 1019,7 hPa 0,0 l/m 6,4 km/h (2 Bft) W 270 10 min 0,254 mm 512 W/m 8,3 C 15,8 C 19,3 km/h (3 Bft) 99 %
24.08.2014 13:10 16,2 C 15,8 C 16,2 C 65 % 1019,7 hPa 0,0 l/m 4,8 km/h (1 Bft) W 270 10 min 0,000 mm 1051 W/m 9,6 C 16,2 C 19,3 km/h (3 Bft) 100 %
24.08.2014 13:20 16,0 C 16,0 C 16,3 C 61 % 1019,8 hPa 0,0 l/m 11,3 km/h (2 Bft) W 270 10 min 0,000 mm 322 W/m 8,5 C 13,7 C 30,6 km/h (5 Bft) 100 %
24.08.2014 13:30 15,6 C 15,6 C 16,0 C 63 % 1019,8 hPa 0,0 l/m 9,7 km/h (2 Bft) W 270 10 min 0,000 mm 306 W/m 8,6 C 13,9 C 20,9 km/h (4 Bft) 100 %
24.08.2014 13:40 15,1 C 15,1 C 15,6 C 68 % 1019,8 hPa 0,0 l/m 8,0 km/h (2 Bft) W-NW 292 10 min 0,000 mm 279 W/m 9,2 C 14,2 C 19,3 km/h (3 Bft) 100 %
24.08.2014 13:50 14,9 C 14,9 C 15,6 C 72 % 1019,8 hPa 0,1 l/m 2,0 km/h (1 Bft) NW 311 10 min 0,000 mm 288 W/m 9,9 C 14,9 C 9,7 km/h (2 Bft) 100 %
24.08.2014 14:00 14,9 C 14,8 C 14,9 C 73 % 1019,5 hPa 0,0 l/m 4,7 km/h (1 Bft) W-NW 292 10 min 0,000 mm 388 W/m 10,1 C 14,9 C 14,5 km/h (3 Bft) 97 %
24.08.2014 14:10 15,1 C 14,9 C 15,1 C 72 % 1019,6 hPa 0,0 l/m 2,2 km/h (1 Bft) W-NW 302 10 min 0,203 mm 260 W/m 10,1 C 15,1 C 9,7 km/h (2 Bft) 98 %
24.08.2014 14:20 15,3 C 15,1 C 15,3 C 70 % 1019,6 hPa 0,0 l/m 1,4 km/h (1 Bft) W-SW 257 10 min 0,000 mm 422 W/m 9,9 C 15,3 C 8,0 km/h (2 Bft) 97 %
24.08.2014 14:30 15,6 C 15,3 C 15,6 C 71 % 1019,3 hPa 0,0 l/m 4,2 km/h (1 Bft) S 191 10 min 0,000 mm 860 W/m 10,4 C 15,6 C 11,3 km/h (2 Bft) 98 %
24.08.2014 14:40 16,3 C 15,6 C 16,3 C 65 % 1019,3 hPa 0,0 l/m 5,9 km/h (2 Bft) W-NW 283 10 min 0,000 mm 840 W/m 9,7 C 16,3 C 16,1 km/h (3 Bft) 97 %
24.08.2014 14:50 17,0 C 16,3 C 17,0 C 65 % 1019,3 hPa 0,0 l/m 7,5 km/h (2 Bft) W 272 10 min 0,000 mm 199 W/m 10,4 C 16,4 C 24,1 km/h (4 Bft) 97 %
24.08.2014 15:00 16,9 C 16,9 C 17,1 C 62 % 1019,3 hPa 0,0 l/m 10,5 km/h (2 Bft) W-SW 252 10 min 0,305 mm 269 W/m 9,6 C 15,0 C 22,5 km/h (4 Bft) 98 %
24.08.2014 15:10 17,0 C 16,9 C 17,0 C 58 % 1019,3 hPa 0,0 l/m 8,1 km/h (2 Bft) W-NW 294 10 min 0,000 mm 271 W/m 8,7 C 16,2 C 19,3 km/h (3 Bft) 96 %
24.08.2014 15:20 16,8 C 16,8 C 17,0 C 63 % 1019,1 hPa 0,0 l/m 6,6 km/h (2 Bft) W 262 10 min 0,000 mm 754 W/m 9,7 C 16,7 C 17,7 km/h (3 Bft) 98 %
24.08.2014 15:30 16,9 C 16,8 C 17,1 C 61 % 1019,1 hPa 0,0 l/m 10,0 km/h (2 Bft) SW 223 10 min 0,000 mm 468 W/m 9,3 C 15,2 C 25,7 km/h (4 Bft) 97 %
24.08.2014 15:40 17,0 C 16,9 C 17,0 C 61 % 1018,9 hPa 0,0 l/m 9,1 km/h (2 Bft) S-SW 196 10 min 0,000 mm 712 W/m 9,4 C 15,7 C 19,3 km/h (3 Bft) 98 %
24.08.2014 15:50 17,3 C 17,0 C 17,3 C 60 % 1018,8 hPa 0,0 l/m 10,4 km/h (2 Bft) SW 222 10 min 0,000 mm 666 W/m 9,5 C 15,5 C 24,1 km/h (4 Bft) 98 %
24.08.2014 16:00 17,4 C 17,3 C 17,4 C 57 % 1018,8 hPa 0,0 l/m 9,3 km/h (2 Bft) SW 235 10 min 0,330 mm 603 W/m 8,8 C 16,1 C 24,1 km/h (4 Bft) 97 %
24.08.2014 16:10 17,4 C 17,4 C 17,5 C 58 % 1018,7 hPa 0,0 l/m 10,2 km/h (2 Bft) W 281 0 min 0,000 mm 72 W/m 9,1 C 15,7 C 24,1 km/h (4 Bft) 97 %
24.08.2014 16:20 17,6 C 17,4 C 17,6 C 53 % 1018,8 hPa 0,0 l/m 10,9 km/h (2 Bft) W 260 0 min 0,000 mm 116 W/m 7,9 C 15,7 C 24,1 km/h (4 Bft) 97 %
24.08.2014 16:30 17,7 C 17,6 C 17,7 C 55 % 1018,6 hPa 0,0 l/m 7,1 km/h (2 Bft) W-NW 298 0 min 0,000 mm 76 W/m 8,5 C 17,4 C 24,1 km/h (4 Bft) 98 %
24.08.2014 16:40 17,6 C 17,6 C 17,7 C 52 % 1018,7 hPa 0,0 l/m 12,2 km/h (2 Bft) W 267 0 min 0,000 mm 127 W/m 7,6 C 15,2 C 25,7 km/h (4 Bft) 97 %
24.08.2014 16:50 17,8 C 17,6 C 17,8 C 50 % 1018,6 hPa 0,0 l/m 10,5 km/h (2 Bft) SW 228 0 min 0,000 mm 146 W/m 7,2 C 16,0 C 22,5 km/h (4 Bft) 98 %
24.08.2014 17:00 17,3 C 17,3 C 17,8 C 55 % 1018,7 hPa 0,0 l/m 10,8 km/h (2 Bft) N-NW 327 0 min 0,153 mm 141 W/m 8,2 C 15,4 C 24,1 km/h (4 Bft) 96 %
24.08.2014 17:10 16,6 C 16,6 C 17,3 C 60 % 1018,9 hPa 0,0 l/m 12,2 km/h (2 Bft) N-NW 330 0 min 0,000 mm 98 W/m 8,8 C 14,0 C 27,4 km/h (4 Bft) 97 %
24.08.2014 17:20 15,7 C 15,7 C 16,6 C 63 % 1019,0 hPa 0,0 l/m 14,9 km/h (3 Bft) NW 320 0 min 0,000 mm 69 W/m 8,7 C 12,1 C 30,6 km/h (5 Bft) 97 %
24.08.2014 17:30 15,0 C 15,0 C 15,7 C 68 % 1018,9 hPa 0,0 l/m 7,9 km/h (2 Bft) NW 325 0 min 0,000 mm 53 W/m 9,1 C 14,2 C 25,7 km/h (4 Bft) 97 %
24.08.2014 17:40 14,4 C 14,4 C 15,0 C 71 % 1018,9 hPa 0,0 l/m 2,6 km/h (1 Bft) NW 316 0 min 0,000 mm 81 W/m 9,2 C 14,4 C 12,9 km/h (3 Bft) 98 %
24.08.2014 17:50 14,3 C 14,3 C 14,4 C 73 % 1018,9 hPa 0,0 l/m 0,5 km/h (0 Bft) NW 325 10 min 0,000 mm 155 W/m 9,5 C 14,3 C 6,4 km/h (2 Bft) 97 %
24.08.2014 18:00 14,5 C 14,3 C 14,5 C 70 % 1018,8 hPa 0,0 l/m 1,7 km/h (1 Bft) N-NW 327 0 min 0,076 mm 148 W/m 9,1 C 14,5 C 8,0 km/h (2 Bft) 97 %
24.08.2014 18:10 15,0 C 14,5 C 15,0 C 68 % 1018,7 hPa 0,0 l/m 1,3 km/h (1 Bft) NW 306 10 min 0,000 mm 162 W/m 9,1 C 15,0 C 9,7 km/h (2 Bft) 98 %
24.08.2014 18:20 15,6 C 15,0 C 15,6 C 63 % 1018,6 hPa 0,0 l/m 6,2 km/h (2 Bft) NW 320 0 min 0,000 mm 128 W/m 8,6 C 15,6 C 14,5 km/h (3 Bft) 97 %
24.08.2014 18:30 16,0 C 15,6 C 16,0 C 62 % 1018,6 hPa 0,0 l/m 3,4 km/h (1 Bft) W-NW 300 0 min 0,000 mm 120 W/m 8,7 C 16,0 C 11,3 km/h (2 Bft) 97 %
24.08.2014 18:40 16,2 C 16,0 C 16,2 C 60 % 1018,5 hPa 0,0 l/m 5,2 km/h (1 Bft) W-NW 298 0 min 0,000 mm 62 W/m 8,4 C 16,2 C 9,7 km/h (2 Bft) 97 %
24.08.2014 18:50 16,1 C 16,1 C 16,2 C 60 % 1018,5 hPa 0,0 l/m 3,9 km/h (1 Bft) W 259 0 min 0,000 mm 37 W/m 8,3 C 16,1 C 9,7 km/h (2 Bft) 98 %
24.08.2014 19:00 15,9 C 15,9 C 16,1 C 62 % 1018,6 hPa 0,0 l/m 2,6 km/h (1 Bft) NW 304 0 min 0,076 mm 58 W/m 8,6 C 15,9 C 11,3 km/h (2 Bft) 97 %
24.08.2014 19:10 15,7 C 15,7 C 15,9 C 63 % 1018,6 hPa 0,0 l/m 3,5 km/h (1 Bft) NW 309 0 min 0,000 mm 88 W/m 8,7 C 15,7 C 8,0 km/h (2 Bft) 97 %
24.08.2014 19:20 15,7 C 15,7 C 15,7 C 67 % 1018,7 hPa 0,0 l/m 1,8 km/h (1 Bft) NW 305 0 min 0,000 mm 62 W/m 9,6 C 15,7 C 6,4 km/h (2 Bft) 89 %
24.08.2014 19:30 15,4 C 15,4 C 15,7 C 66 % 1018,7 hPa 0,0 l/m 0,4 km/h (0 Bft) NW 305 0 min 0,000 mm 39 W/m 9,1 C 15,4 C 4,8 km/h (1 Bft) 97 %
24.08.2014 19:40 15,1 C 15,1 C 15,4 C 66 % 1018,6 hPa 0,0 l/m 0,3 km/h (0 Bft) NW 305 0 min 0,000 mm 28 W/m 8,8 C 15,1 C 4,8 km/h (1 Bft) 98 %
24.08.2014 19:50 14,8 C 14,8 C 15,1 C 69 % 1018,7 hPa 0,0 l/m 0,3 km/h (0 Bft) NW 305 0 min 0,000 mm 21 W/m 9,2 C 14,8 C 4,8 km/h (1 Bft) 97 %
24.08.2014 20:00 14,4 C 14,4 C 14,8 C 72 % 1018,7 hPa 0,0 l/m 0,0 km/h (0 Bft) NW 305 0 min 0,026 mm 12 W/m 9,4 C 14,4 C 0,0 km/h (0 Bft) 98 %
24.08.2014 20:10 14,0 C 14,0 C 14,4 C 74 % 1018,6 hPa 0,0 l/m 0,0 km/h (0 Bft) NW 305 0 min 0,000 mm 7 W/m 9,4 C 14,0 C 0,0 km/h (0 Bft) 97 %
24.08.2014 20:20 13,3 C 13,3 C 14,0 C 76 % 1018,6 hPa 0,0 l/m 0,0 km/h (0 Bft) NW 305 0 min 0,000 mm 0 W/m 9,2 C 13,3 C 0,0 km/h (0 Bft) 98 %
24.08.2014 20:30 12,7 C 12,7 C 13,3 C 77 % 1018,6 hPa 0,0 l/m 0,2 km/h (0 Bft) N 5 0 min 0,000 mm 0 W/m 8,8 C 12,7 C 3,2 km/h (1 Bft) 97 %
24.08.2014 20:40 12,4 C 12,4 C 12,7 C 79 % 1018,6 hPa 0,0 l/m 0,0 km/h (0 Bft) N 5 0 min 0,000 mm 0 W/m 8,9 C 12,4 C 0,0 km/h (0 Bft) 97 %
24.08.2014 20:50 12,2 C 12,2 C 12,4 C 80 % 1018,8 hPa 0,0 l/m 0,0 km/h (0 Bft) N 5 0 min 0,000 mm 0 W/m 8,9 C 12,2 C 1,6 km/h (1 Bft) 97 %
24.08.2014 21:00 11,9 C 11,9 C 12,2 C 80 % 1018,9 hPa 0,0 l/m 0,1 km/h (0 Bft) N 5 0 min 0,000 mm 0 W/m 8,6 C 11,9 C 3,2 km/h (1 Bft) 97 %
24.08.2014 21:10 11,7 C 11,7 C 11,9 C 80 % 1018,9 hPa 0,0 l/m 0,0 km/h (0 Bft) N 360 0 min 0,000 mm 0 W/m 8,4 C 11,7 C 1,6 km/h (1 Bft) 100 %
24.08.2014 21:20 11,5 C 11,5 C 11,7 C 82 % 1019,3 hPa 0,0 l/m 0,0 km/h (0 Bft) N 0 0 min 0,000 mm 0 W/m 8,5 C 11,5 C 0,0 km/h (0 Bft) 100 %
24.08.2014 21:30 11,3 C 11,3 C 11,5 C 82 % 1019,3 hPa 0,0 l/m 1,6 km/h (1 Bft) O-NO 67 0 min 0,000 mm 0 W/m 8,3 C 11,3 C 4,8 km/h (1 Bft) 100 %
24.08.2014 21:40 11,5 C 11,3 C 11,5 C 80 % 1019,3 hPa 0,0 l/m 0,0 km/h (0 Bft) O-NO 67 0 min 0,000 mm 0 W/m 8,2 C 11,5 C 1,6 km/h (1 Bft) 100 %
24.08.2014 21:50 11,9 C 11,5 C 11,9 C 78 % 1019,3 hPa 0,0 l/m 0,0 km/h (0 Bft) N 0 0 min 0,000 mm 0 W/m 8,2 C 11,9 C 0,0 km/h (0 Bft) 91 %
24.08.2014 22:00 12,1 C 11,9 C 12,1 C 78 % 1019,3 hPa 0,0 l/m 0,0 km/h (0 Bft) N 0 0 min 0,025 mm 0 W/m 8,4 C 12,1 C 0,0 km/h (0 Bft) 100 %
24.08.2014 22:10 12,1 C 12,1 C 12,2 C 78 % 1019,2 hPa 0,0 l/m 0,0 km/h (0 Bft) N 0 0 min 0,000 mm 0 W/m 8,4 C 12,1 C 0,0 km/h (0 Bft) 100 %
24.08.2014 22:20 11,9 C 11,9 C 12,1 C 78 % 1019,3 hPa 0,0 l/m 0,0 km/h (0 Bft) N 0 0 min 0,000 mm 0 W/m 8,2 C 11,9 C 0,0 km/h (0 Bft) 100 %
24.08.2014 22:30 11,7 C 11,7 C 11,9 C 80 % 1019,4 hPa 0,0 l/m 0,0 km/h (0 Bft) N 0 0 min 0,000 mm 0 W/m 8,4 C 11,7 C 0,0 km/h (0 Bft) 100 %
24.08.2014 22:40 11,2 C 11,2 C 11,7 C 83 % 1019,3 hPa 0,0 l/m 0,0 km/h (0 Bft) N 0 0 min 0,000 mm 0 W/m 8,4 C 11,2 C 0,0 km/h (0 Bft) 100 %
24.08.2014 22:50 10,8 C 10,8 C 11,2 C 84 % 1019,3 hPa 0,0 l/m 0,0 km/h (0 Bft) N 0 0 min 0,000 mm 0 W/m 8,2 C 10,8 C 0,0 km/h (0 Bft) 100 %
24.08.2014 23:00 10,5 C 10,5 C 10,8 C 84 % 1019,3 hPa 0,0 l/m 0,0 km/h (0 Bft) N 0 0 min 0,025 mm 0 W/m 7,9 C 10,5 C 0,0 km/h (0 Bft) 100 %
24.08.2014 23:10 10,2 C 10,2 C 10,4 C 85 % 1019,2 hPa 0,0 l/m 0,0 km/h (0 Bft) N 0 0 min 0,000 mm 0 W/m 7,8 C 10,2 C 0,0 km/h (0 Bft) 99 %
24.08.2014 23:20 9,9 C 9,9 C 10,2 C 85 % 1019,2 hPa 0,0 l/m 0,0 km/h (0 Bft) N 0 0 min 0,000 mm 0 W/m 7,5 C 9,9 C 0,0 km/h (0 Bft) 100 %
24.08.2014 23:30 9,7 C 9,7 C 9,9 C 86 % 1019,2 hPa 0,0 l/m 0,0 km/h (0 Bft) N 0 0 min 0,000 mm 0 W/m 7,5 C 9,7 C 0,0 km/h (0 Bft) 100 %
24.08.2014 23:40 9,4 C 9,4 C 9,7 C 86 % 1019,1 hPa 0,0 l/m 0,0 km/h (0 Bft) N 0 0 min 0,000 mm 0 W/m 7,2 C 9,4 C 0,0 km/h (0 Bft) 100 %
24.08.2014 23:50 9,3 C 9,3 C 9,4 C 87 % 1019,1 hPa 0,0 l/m 0,0 km/h (0 Bft) N 0 0 min 0,000 mm 0 W/m 7,2 C 9,3 C 0,0 km/h (0 Bft) 100 %
_ Min-Zeit 06:40 06:40 06:50 16:50 00:20 - 00:20 - - - - - 23:40 06:40 01:00 02:30
Minimum _ 9,1 C 9,1 C 9,1 C 50 % 1016,0 hPa - 0,0 km/h (0 Bft) - - - - - 7,2 C 9,1 C 0,0 km/h (0 Bft) 88 %
_ Max-Zeit 16:50 16:30 16:50 00:00 10:40 13:50 17:20 - - 09:00 16:00 13:10 10:30 16:30 13:20 09:50
Maximum _ 17,8 C 17,6 C 17,8 C 88 % 1020,0 hPa 0,1 l/m 14,9 km/h
NW (3 Bft)
- - 10 min 0,330 mm 1051 W/m 11,2 C 17,4 C 30,6 km/h
W (5 Bft)
100 %
Durchschnitt _ 12,6 C 12,5 C 12,8 C 78 % 1018,4 hPa #0,1 l/m 3,2 km/h (1 Bft) W - #7:30 h #2,184 mm 331 W/m 8,7 C 12,4 C 10,0 km/h (2 Bft) 98 %
PRIVATE WETTERSTATION BILLIGHEIM-ALLFELD - www.neckar-odenwald-wetter.de - Holger Sonntag